sensor_id;sensor_type;location;lat;lon;timestamp;noise_LAeq;noise_LA_min;noise_LA_max;noise_LA01;noise_LA95
38366;Laerm;943;51.568;6.998;2023-06-10T00:00:07;39.57;36.06;45.41;;
38366;Laerm;943;51.568;6.998;2023-06-10T00:02:39;38.49;34.55;45.11;;
38366;Laerm;943;51.568;6.998;2023-06-10T00:05:08;39.42;34.92;47.57;;
38366;Laerm;943;51.568;6.998;2023-06-10T00:07:38;40.59;33.74;51.88;;
38366;Laerm;943;51.568;6.998;2023-06-10T00:10:08;39.18;35.44;44.40;;
38366;Laerm;943;51.568;6.998;2023-06-10T00:12:38;38.92;34.35;57.75;;
38366;Laerm;943;51.568;6.998;2023-06-10T00:15:07;39.38;35.64;45.10;;
38366;Laerm;943;51.568;6.998;2023-06-10T00:17:37;39.11;34.98;45.12;;
38366;Laerm;943;51.568;6.998;2023-06-10T00:20:12;40.46;35.45;48.90;;
38366;Laerm;943;51.568;6.998;2023-06-10T00:22:40;40.24;36.10;47.32;;
38366;Laerm;943;51.568;6.998;2023-06-10T00:25:13;41.34;35.65;48.95;;
38366;Laerm;943;51.568;6.998;2023-06-10T00:27:42;42.02;36.13;49.76;;
38366;Laerm;943;51.568;6.998;2023-06-10T00:30:15;42.56;36.61;50.37;;
38366;Laerm;943;51.568;6.998;2023-06-10T00:32:47;39.56;34.25;48.97;;
38366;Laerm;943;51.568;6.998;2023-06-10T00:35:17;38.25;33.39;46.83;;
38366;Laerm;943;51.568;6.998;2023-06-10T00:37:45;37.00;33.67;46.06;;
38366;Laerm;943;51.568;6.998;2023-06-10T00:40:15;37.28;33.15;43.77;;
38366;Laerm;943;51.568;6.998;2023-06-10T00:42:43;40.66;35.30;47.98;;
38366;Laerm;943;51.568;6.998;2023-06-10T00:45:11;41.31;36.71;46.96;;
38366;Laerm;943;51.568;6.998;2023-06-10T00:47:40;39.84;33.90;46.20;;
38366;Laerm;943;51.568;6.998;2023-06-10T00:50:09;41.27;35.45;47.63;;
38366;Laerm;943;51.568;6.998;2023-06-10T00:52:37;42.92;37.82;50.40;;
38366;Laerm;943;51.568;6.998;2023-06-10T00:55:06;41.04;35.03;52.08;;
38366;Laerm;943;51.568;6.998;2023-06-10T00:57:36;41.45;35.17;49.63;;
38366;Laerm;943;51.568;6.998;2023-06-10T01:00:06;43.94;36.69;55.78;;
38366;Laerm;943;51.568;6.998;2023-06-10T01:02:36;41.59;35.99;52.84;;
38366;Laerm;943;51.568;6.998;2023-06-10T01:05:09;40.36;34.97;51.67;;
38366;Laerm;943;51.568;6.998;2023-06-10T01:08:01;39.82;34.73;47.54;;
38366;Laerm;943;51.568;6.998;2023-06-10T01:10:55;41.30;34.30;48.24;;
38366;Laerm;943;51.568;6.998;2023-06-10T01:13:27;40.93;36.28;46.92;;
38366;Laerm;943;51.568;6.998;2023-06-10T01:16:01;39.95;35.31;46.58;;
38366;Laerm;943;51.568;6.998;2023-06-10T01:18:33;39.87;34.96;47.10;;
38366;Laerm;943;51.568;6.998;2023-06-10T01:21:01;41.24;36.56;47.77;;
38366;Laerm;943;51.568;6.998;2023-06-10T01:23:30;41.43;36.06;48.06;;
38366;Laerm;943;51.568;6.998;2023-06-10T01:26:10;39.56;34.93;51.18;;
38366;Laerm;943;51.568;6.998;2023-06-10T01:29:06;39.64;35.71;48.63;;
38366;Laerm;943;51.568;6.998;2023-06-10T01:32:18;39.76;34.95;49.50;;
38366;Laerm;943;51.568;6.998;2023-06-10T01:34:50;40.02;35.83;47.88;;
38366;Laerm;943;51.568;6.998;2023-06-10T01:37:24;40.69;36.28;56.69;;
38366;Laerm;943;51.568;6.998;2023-06-10T01:39:59;40.33;35.38;57.37;;
38366;Laerm;943;51.568;6.998;2023-06-10T01:42:28;46.34;36.35;73.94;;
38366;Laerm;943;51.568;6.998;2023-06-10T01:44:57;41.17;36.01;56.75;;
38366;Laerm;943;51.568;6.998;2023-06-10T01:47:25;40.79;35.14;61.07;;
38366;Laerm;943;51.568;6.998;2023-06-10T01:49:53;42.91;34.93;62.66;;
38366;Laerm;943;51.568;6.998;2023-06-10T01:52:21;43.97;34.37;62.68;;
38366;Laerm;943;51.568;6.998;2023-06-10T01:54:49;46.97;34.33;65.49;;
38366;Laerm;943;51.568;6.998;2023-06-10T01:57:18;46.40;36.73;64.69;;
38366;Laerm;943;51.568;6.998;2023-06-10T01:59:45;46.51;37.41;64.40;;
38366;Laerm;943;51.568;6.998;2023-06-10T02:02:14;47.13;36.05;65.53;;
38366;Laerm;943;51.568;6.998;2023-06-10T02:04:43;47.61;37.95;63.54;;
38366;Laerm;943;51.568;6.998;2023-06-10T02:07:11;49.46;35.55;70.18;;
38366;Laerm;943;51.568;6.998;2023-06-10T02:09:39;49.89;36.86;66.88;;
38366;Laerm;943;51.568;6.998;2023-06-10T02:12:08;50.18;38.10;70.24;;
38366;Laerm;943;51.568;6.998;2023-06-10T02:14:37;50.75;34.99;67.81;;
38366;Laerm;943;51.568;6.998;2023-06-10T02:17:05;57.29;36.86;71.56;;
38366;Laerm;943;51.568;6.998;2023-06-10T02:19:33;59.49;37.17;74.22;;
38366;Laerm;943;51.568;6.998;2023-06-10T02:22:04;58.14;37.98;72.59;;
38366;Laerm;943;51.568;6.998;2023-06-10T02:24:32;58.03;36.80;72.98;;
38366;Laerm;943;51.568;6.998;2023-06-10T02:27:00;57.89;38.37;73.24;;
38366;Laerm;943;51.568;6.998;2023-06-10T02:29:28;56.46;38.47;71.87;;
38366;Laerm;943;51.568;6.998;2023-06-10T02:31:56;58.94;37.53;72.75;;
38366;Laerm;943;51.568;6.998;2023-06-10T02:34:24;59.63;36.74;78.22;;
38366;Laerm;943;51.568;6.998;2023-06-10T02:36:53;52.18;38.34;76.58;;
38366;Laerm;943;51.568;6.998;2023-06-10T02:39:22;52.87;35.91;71.78;;
38366;Laerm;943;51.568;6.998;2023-06-10T02:41:51;52.49;36.99;68.38;;
38366;Laerm;943;51.568;6.998;2023-06-10T02:44:21;51.18;38.65;67.95;;
38366;Laerm;943;51.568;6.998;2023-06-10T02:46:49;50.71;37.87;67.11;;
38366;Laerm;943;51.568;6.998;2023-06-10T02:49:18;50.66;38.66;68.01;;
38366;Laerm;943;51.568;6.998;2023-06-10T02:51:46;50.27;37.07;67.75;;
38366;Laerm;943;51.568;6.998;2023-06-10T02:54:15;50.44;37.36;66.13;;
38366;Laerm;943;51.568;6.998;2023-06-10T02:56:44;51.70;37.49;69.66;;
38366;Laerm;943;51.568;6.998;2023-06-10T02:59:19;51.15;36.22;69.81;;
38366;Laerm;943;51.568;6.998;2023-06-10T03:01:47;47.81;36.89;65.24;;
38366;Laerm;943;51.568;6.998;2023-06-10T03:04:16;42.94;37.82;56.31;;
38366;Laerm;943;51.568;6.998;2023-06-10T03:06:52;45.73;38.07;66.90;;
38366;Laerm;943;51.568;6.998;2023-06-10T03:09:26;46.26;38.29;59.96;;
38366;Laerm;943;51.568;6.998;2023-06-10T03:11:57;48.51;38.01;70.43;;
38366;Laerm;943;51.568;6.998;2023-06-10T03:14:26;46.30;38.36;58.26;;
38366;Laerm;943;51.568;6.998;2023-06-10T03:16:54;45.67;38.74;64.40;;
38366;Laerm;943;51.568;6.998;2023-06-10T03:19:24;48.58;37.50;63.67;;
38366;Laerm;943;51.568;6.998;2023-06-10T03:22:12;46.98;37.56;62.89;;
38366;Laerm;943;51.568;6.998;2023-06-10T03:24:50;49.45;37.86;65.83;;
38366;Laerm;943;51.568;6.998;2023-06-10T03:27:19;48.33;39.54;62.56;;
38366;Laerm;943;51.568;6.998;2023-06-10T03:29:51;48.52;38.63;65.32;;
38366;Laerm;943;51.568;6.998;2023-06-10T03:32:20;48.75;37.66;64.77;;
38366;Laerm;943;51.568;6.998;2023-06-10T03:34:48;49.03;39.50;67.37;;
38366;Laerm;943;51.568;6.998;2023-06-10T03:37:16;48.86;39.34;68.83;;
38366;Laerm;943;51.568;6.998;2023-06-10T03:39:47;47.58;38.65;64.21;;
38366;Laerm;943;51.568;6.998;2023-06-10T03:42:15;45.01;39.01;59.88;;
38366;Laerm;943;51.568;6.998;2023-06-10T03:44:43;43.95;38.75;57.92;;
38366;Laerm;943;51.568;6.998;2023-06-10T03:47:11;43.40;38.60;55.08;;
38366;Laerm;943;51.568;6.998;2023-06-10T03:49:40;43.71;38.68;50.75;;
38366;Laerm;943;51.568;6.998;2023-06-10T03:52:09;44.47;39.26;62.78;;
38366;Laerm;943;51.568;6.998;2023-06-10T03:54:37;42.39;37.42;60.72;;
38366;Laerm;943;51.568;6.998;2023-06-10T03:57:05;44.16;38.10;52.06;;
38366;Laerm;943;51.568;6.998;2023-06-10T03:59:35;46.56;38.72;64.08;;
38366;Laerm;943;51.568;6.998;2023-06-10T04:02:04;45.97;39.18;59.29;;
38366;Laerm;943;51.568;6.998;2023-06-10T04:04:33;46.02;38.77;56.55;;
38366;Laerm;943;51.568;6.998;2023-06-10T04:07:01;46.63;39.27;61.16;;
38366;Laerm;943;51.568;6.998;2023-06-10T04:09:29;47.15;39.23;61.44;;
38366;Laerm;943;51.568;6.998;2023-06-10T04:11:57;46.22;38.26;61.26;;
38366;Laerm;943;51.568;6.998;2023-06-10T04:14:25;46.00;38.37;60.77;;
38366;Laerm;943;51.568;6.998;2023-06-10T04:16:53;44.23;39.49;56.01;;
38366;Laerm;943;51.568;6.998;2023-06-10T04:19:22;44.60;39.07;53.25;;
38366;Laerm;943;51.568;6.998;2023-06-10T04:21:51;43.78;39.40;55.64;;
38366;Laerm;943;51.568;6.998;2023-06-10T04:24:20;44.86;38.59;61.01;;
38366;Laerm;943;51.568;6.998;2023-06-10T04:26:48;43.18;38.18;57.10;;
38366;Laerm;943;51.568;6.998;2023-06-10T04:29:16;42.85;38.67;65.21;;
38366;Laerm;943;51.568;6.998;2023-06-10T04:31:44;47.98;38.49;66.29;;
38366;Laerm;943;51.568;6.998;2023-06-10T04:34:14;51.37;38.42;77.07;;
38366;Laerm;943;51.568;6.998;2023-06-10T04:36:42;47.08;39.13;62.32;;
38366;Laerm;943;51.568;6.998;2023-06-10T04:39:10;47.59;39.69;62.73;;
38366;Laerm;943;51.568;6.998;2023-06-10T04:41:39;47.58;39.97;61.96;;
38366;Laerm;943;51.568;6.998;2023-06-10T04:44:08;48.30;38.31;64.37;;
38366;Laerm;943;51.568;6.998;2023-06-10T04:46:36;44.35;38.42;59.84;;
38366;Laerm;943;51.568;6.998;2023-06-10T04:49:04;42.76;36.90;56.32;;
38366;Laerm;943;51.568;6.998;2023-06-10T04:51:33;46.37;38.16;68.29;;
38366;Laerm;943;51.568;6.998;2023-06-10T04:54:02;42.14;37.88;54.06;;
38366;Laerm;943;51.568;6.998;2023-06-10T04:56:31;46.38;38.49;64.40;;
38366;Laerm;943;51.568;6.998;2023-06-10T04:59:00;46.98;39.24;69.22;;
38366;Laerm;943;51.568;6.998;2023-06-10T05:01:28;46.36;39.97;61.58;;
38366;Laerm;943;51.568;6.998;2023-06-10T05:03:56;45.25;39.07;65.65;;
38366;Laerm;943;51.568;6.998;2023-06-10T05:06:24;43.37;38.81;50.96;;
38366;Laerm;943;51.568;6.998;2023-06-10T05:08:52;43.07;38.67;49.47;;
38366;Laerm;943;51.568;6.998;2023-06-10T05:11:20;42.01;37.28;59.56;;
38366;Laerm;943;51.568;6.998;2023-06-10T05:13:48;44.24;38.85;58.49;;
38366;Laerm;943;51.568;6.998;2023-06-10T05:16:16;44.83;37.85;61.99;;
38366;Laerm;943;51.568;6.998;2023-06-10T05:18:44;48.02;39.05;66.47;;
38366;Laerm;943;51.568;6.998;2023-06-10T05:21:12;46.53;39.04;66.21;;
38366;Laerm;943;51.568;6.998;2023-06-10T05:23:39;47.92;39.74;67.08;;
38366;Laerm;943;51.568;6.998;2023-06-10T05:26:08;47.38;38.84;64.90;;
38366;Laerm;943;51.568;6.998;2023-06-10T05:28:36;47.46;39.19;66.06;;
38366;Laerm;943;51.568;6.998;2023-06-10T05:31:04;47.15;38.28;65.69;;
38366;Laerm;943;51.568;6.998;2023-06-10T05:33:32;47.01;38.38;63.58;;
38366;Laerm;943;51.568;6.998;2023-06-10T05:36:00;47.67;39.69;65.86;;
38366;Laerm;943;51.568;6.998;2023-06-10T05:38:28;47.23;39.11;62.63;;
38366;Laerm;943;51.568;6.998;2023-06-10T05:40:56;44.32;39.62;58.36;;
38366;Laerm;943;51.568;6.998;2023-06-10T05:43:24;45.03;39.90;61.27;;
38366;Laerm;943;51.568;6.998;2023-06-10T05:45:53;43.56;37.70;54.22;;
38366;Laerm;943;51.568;6.998;2023-06-10T05:48:21;45.00;38.23;61.30;;
38366;Laerm;943;51.568;6.998;2023-06-10T05:50:49;43.22;37.33;56.85;;
38366;Laerm;943;51.568;6.998;2023-06-10T05:53:18;44.07;38.28;55.07;;
38366;Laerm;943;51.568;6.998;2023-06-10T05:55:46;44.28;37.81;65.34;;
38366;Laerm;943;51.568;6.998;2023-06-10T05:58:15;42.55;38.34;49.36;;
38366;Laerm;943;51.568;6.998;2023-06-10T06:00:45;45.25;39.51;55.21;;
38366;Laerm;943;51.568;6.998;2023-06-10T06:03:13;43.69;37.01;58.84;;
38366;Laerm;943;51.568;6.998;2023-06-10T06:05:41;43.78;38.29;52.58;;
38366;Laerm;943;51.568;6.998;2023-06-10T06:08:10;42.43;37.86;49.82;;
38366;Laerm;943;51.568;6.998;2023-06-10T06:10:38;44.04;37.99;64.13;;
38366;Laerm;943;51.568;6.998;2023-06-10T06:13:06;42.82;39.09;53.56;;
38366;Laerm;943;51.568;6.998;2023-06-10T06:15:34;42.79;37.88;48.92;;
38366;Laerm;943;51.568;6.998;2023-06-10T06:18:02;43.92;37.98;54.02;;
38366;Laerm;943;51.568;6.998;2023-06-10T06:20:30;44.07;39.91;53.54;;
38366;Laerm;943;51.568;6.998;2023-06-10T06:23:00;47.52;38.90;66.90;;
38366;Laerm;943;51.568;6.998;2023-06-10T06:25:31;45.54;37.91;65.47;;
38366;Laerm;943;51.568;6.998;2023-06-10T06:28:03;43.87;38.97;56.74;;
38366;Laerm;943;51.568;6.998;2023-06-10T06:30:33;42.91;38.73;52.66;;
38366;Laerm;943;51.568;6.998;2023-06-10T06:33:02;44.22;40.23;57.21;;
38366;Laerm;943;51.568;6.998;2023-06-10T06:35:34;45.44;37.94;66.60;;
38366;Laerm;943;51.568;6.998;2023-06-10T06:38:02;49.03;39.21;66.31;;
38366;Laerm;943;51.568;6.998;2023-06-10T06:40:32;49.68;39.63;65.49;;
38366;Laerm;943;51.568;6.998;2023-06-10T06:42:59;48.21;38.95;68.28;;
38366;Laerm;943;51.568;6.998;2023-06-10T06:45:50;47.79;39.35;66.87;;
38366;Laerm;943;51.568;6.998;2023-06-10T06:48:19;44.95;39.49;63.93;;
38366;Laerm;943;51.568;6.998;2023-06-10T06:50:47;46.43;39.27;63.17;;
38366;Laerm;943;51.568;6.998;2023-06-10T06:53:15;47.56;39.62;65.93;;
38366;Laerm;943;51.568;6.998;2023-06-10T06:55:42;46.11;39.27;62.34;;
38366;Laerm;943;51.568;6.998;2023-06-10T06:58:10;48.17;39.06;63.69;;
38366;Laerm;943;51.568;6.998;2023-06-10T07:00:38;47.77;39.91;64.56;;
38366;Laerm;943;51.568;6.998;2023-06-10T07:03:06;47.55;39.07;62.26;;
38366;Laerm;943;51.568;6.998;2023-06-10T07:05:34;46.57;37.91;64.33;;
38366;Laerm;943;51.568;6.998;2023-06-10T07:08:03;46.40;38.34;64.41;;
38366;Laerm;943;51.568;6.998;2023-06-10T07:10:31;49.97;38.87;72.96;;
38366;Laerm;943;51.568;6.998;2023-06-10T07:12:59;51.87;41.08;70.92;;
38366;Laerm;943;51.568;6.998;2023-06-10T07:15:27;43.63;38.68;64.12;;
38366;Laerm;943;51.568;6.998;2023-06-10T07:17:55;43.48;38.19;60.37;;
38366;Laerm;943;51.568;6.998;2023-06-10T07:20:23;45.01;38.54;65.67;;
38366;Laerm;943;51.568;6.998;2023-06-10T07:22:51;41.72;36.09;54.79;;
38366;Laerm;943;51.568;6.998;2023-06-10T07:25:19;43.03;39.16;49.57;;
38366;Laerm;943;51.568;6.998;2023-06-10T07:27:47;44.16;38.06;54.95;;
38366;Laerm;943;51.568;6.998;2023-06-10T07:30:15;42.54;37.65;52.52;;
38366;Laerm;943;51.568;6.998;2023-06-10T07:32:43;45.15;37.04;65.94;;
38366;Laerm;943;51.568;6.998;2023-06-10T07:35:14;53.91;38.91;82.33;;
38366;Laerm;943;51.568;6.998;2023-06-10T07:37:42;46.35;38.59;70.09;;
38366;Laerm;943;51.568;6.998;2023-06-10T07:40:10;48.11;39.03;67.68;;
38366;Laerm;943;51.568;6.998;2023-06-10T07:42:38;51.44;38.12;69.84;;
38366;Laerm;943;51.568;6.998;2023-06-10T07:45:07;50.41;38.26;69.05;;
38366;Laerm;943;51.568;6.998;2023-06-10T07:47:35;46.82;38.05;66.02;;
38366;Laerm;943;51.568;6.998;2023-06-10T07:50:05;44.36;38.40;62.54;;
38366;Laerm;943;51.568;6.998;2023-06-10T07:52:33;49.92;39.67;70.84;;
38366;Laerm;943;51.568;6.998;2023-06-10T07:55:01;55.37;39.32;78.74;;
38366;Laerm;943;51.568;6.998;2023-06-10T07:57:29;45.39;40.85;62.34;;
38366;Laerm;943;51.568;6.998;2023-06-10T07:59:59;44.71;39.89;59.74;;
38366;Laerm;943;51.568;6.998;2023-06-10T08:02:27;43.37;39.07;55.25;;
38366;Laerm;943;51.568;6.998;2023-06-10T08:04:55;46.48;41.31;54.81;;
38366;Laerm;943;51.568;6.998;2023-06-10T08:07:23;47.93;39.93;60.76;;
38366;Laerm;943;51.568;6.998;2023-06-10T08:09:51;43.46;39.84;51.01;;
38366;Laerm;943;51.568;6.998;2023-06-10T08:12:19;44.98;39.44;55.10;;
38366;Laerm;943;51.568;6.998;2023-06-10T08:14:47;46.54;39.58;65.58;;
38366;Laerm;943;51.568;6.998;2023-06-10T08:17:15;43.96;38.74;58.04;;
38366;Laerm;943;51.568;6.998;2023-06-10T08:19:43;44.42;39.35;52.04;;
38366;Laerm;943;51.568;6.998;2023-06-10T08:22:11;45.72;40.28;58.52;;
38366;Laerm;943;51.568;6.998;2023-06-10T08:24:39;46.98;41.08;63.73;;
38366;Laerm;943;51.568;6.998;2023-06-10T08:27:09;44.98;40.26;57.68;;
38366;Laerm;943;51.568;6.998;2023-06-10T08:29:37;45.56;40.75;64.28;;
38366;Laerm;943;51.568;6.998;2023-06-10T08:32:06;48.19;40.35;65.12;;
38366;Laerm;943;51.568;6.998;2023-06-10T08:34:35;43.77;39.49;53.54;;
38366;Laerm;943;51.568;6.998;2023-06-10T08:37:06;44.99;39.47;64.36;;
38366;Laerm;943;51.568;6.998;2023-06-10T08:39:35;47.35;39.41;74.82;;
38366;Laerm;943;51.568;6.998;2023-06-10T08:42:39;47.31;40.12;73.69;;
38366;Laerm;943;51.568;6.998;2023-06-10T08:45:18;49.22;41.42;62.65;;
38366;Laerm;943;51.568;6.998;2023-06-10T08:47:50;49.77;41.94;63.69;;
38366;Laerm;943;51.568;6.998;2023-06-10T08:50:21;54.97;40.13;76.88;;
38366;Laerm;943;51.568;6.998;2023-06-10T08:52:58;50.99;39.01;76.21;;
38366;Laerm;943;51.568;6.998;2023-06-10T08:55:42;45.23;40.06;64.06;;
38366;Laerm;943;51.568;6.998;2023-06-10T08:58:12;45.71;38.25;61.00;;
38366;Laerm;943;51.568;6.998;2023-06-10T09:00:42;47.82;39.43;64.95;;
38366;Laerm;943;51.568;6.998;2023-06-10T09:03:12;48.59;40.63;69.03;;
38366;Laerm;943;51.568;6.998;2023-06-10T09:05:42;46.49;40.77;61.76;;
38366;Laerm;943;51.568;6.998;2023-06-10T09:08:11;45.35;40.62;57.74;;
38366;Laerm;943;51.568;6.998;2023-06-10T09:10:40;44.25;39.84;52.82;;
38366;Laerm;943;51.568;6.998;2023-06-10T09:13:08;45.30;40.36;59.39;;
38366;Laerm;943;51.568;6.998;2023-06-10T09:15:36;46.22;40.77;60.15;;
38366;Laerm;943;51.568;6.998;2023-06-10T09:18:04;45.34;39.12;64.84;;
38366;Laerm;943;51.568;6.998;2023-06-10T09:20:33;46.66;42.45;61.76;;
38366;Laerm;943;51.568;6.998;2023-06-10T09:23:01;45.74;40.12;58.46;;
38366;Laerm;943;51.568;6.998;2023-06-10T09:25:38;46.19;40.35;62.95;;
38366;Laerm;943;51.568;6.998;2023-06-10T09:28:15;43.98;39.30;57.92;;
38366;Laerm;943;51.568;6.998;2023-06-10T09:30:43;45.78;41.40;57.89;;
38366;Laerm;943;51.568;6.998;2023-06-10T09:33:16;49.03;40.08;61.94;;
38366;Laerm;943;51.568;6.998;2023-06-10T09:35:50;48.73;40.11;71.25;;
38366;Laerm;943;51.568;6.998;2023-06-10T09:38:22;47.98;41.00;62.23;;
38366;Laerm;943;51.568;6.998;2023-06-10T09:40:54;48.05;40.91;70.01;;
38366;Laerm;943;51.568;6.998;2023-06-10T09:43:23;52.09;42.53;64.24;;
38366;Laerm;943;51.568;6.998;2023-06-10T09:46:05;49.24;42.42;62.20;;
38366;Laerm;943;51.568;6.998;2023-06-10T09:48:47;47.73;40.51;62.55;;
38366;Laerm;943;51.568;6.998;2023-06-10T09:51:17;46.94;41.55;57.25;;
38366;Laerm;943;51.568;6.998;2023-06-10T09:53:55;47.23;41.22;68.39;;
38366;Laerm;943;51.568;6.998;2023-06-10T09:56:38;46.55;39.85;58.19;;
38366;Laerm;943;51.568;6.998;2023-06-10T09:59:11;44.32;38.92;59.11;;
38366;Laerm;943;51.568;6.998;2023-06-10T10:01:57;46.45;39.77;66.09;;
38366;Laerm;943;51.568;6.998;2023-06-10T10:04:28;46.53;40.32;68.28;;
38366;Laerm;943;51.568;6.998;2023-06-10T10:06:56;44.58;39.98;55.44;;
38366;Laerm;943;51.568;6.998;2023-06-10T10:09:25;46.85;40.40;66.18;;
38366;Laerm;943;51.568;6.998;2023-06-10T10:11:56;49.33;40.53;60.30;;
38366;Laerm;943;51.568;6.998;2023-06-10T10:14:26;45.39;41.01;62.87;;
38366;Laerm;943;51.568;6.998;2023-06-10T10:16:59;43.63;39.61;49.42;;
38366;Laerm;943;51.568;6.998;2023-06-10T10:19:57;45.61;40.58;55.04;;
38366;Laerm;943;51.568;6.998;2023-06-10T10:22:38;44.73;39.70;57.08;;
38366;Laerm;943;51.568;6.998;2023-06-10T10:25:23;44.90;39.66;53.44;;
38366;Laerm;943;51.568;6.998;2023-06-10T10:28:12;46.53;40.31;69.25;;
38366;Laerm;943;51.568;6.998;2023-06-10T10:30:54;54.85;42.22;82.71;;
38366;Laerm;943;51.568;6.998;2023-06-10T10:34:01;49.56;39.91;70.16;;
38366;Laerm;943;51.568;6.998;2023-06-10T10:36:40;45.55;40.68;59.39;;
38366;Laerm;943;51.568;6.998;2023-06-10T10:39:20;47.45;40.98;61.10;;
38366;Laerm;943;51.568;6.998;2023-06-10T10:41:52;47.54;41.17;65.36;;
38366;Laerm;943;51.568;6.998;2023-06-10T10:44:22;44.60;38.62;61.55;;
38366;Laerm;943;51.568;6.998;2023-06-10T10:46:52;44.12;39.83;51.65;;
38366;Laerm;943;51.568;6.998;2023-06-10T10:49:26;45.91;40.38;68.86;;
38366;Laerm;943;51.568;6.998;2023-06-10T10:51:59;47.26;41.03;69.58;;
38366;Laerm;943;51.568;6.998;2023-06-10T10:54:36;47.37;39.55;63.91;;
38366;Laerm;943;51.568;6.998;2023-06-10T10:57:23;44.85;39.81;54.56;;
38366;Laerm;943;51.568;6.998;2023-06-10T10:59:56;45.72;40.88;60.36;;
38366;Laerm;943;51.568;6.998;2023-06-10T11:05:17;44.85;39.43;67.18;;
38366;Laerm;943;51.568;6.998;2023-06-10T11:07:55;45.75;41.40;60.05;;
38366;Laerm;943;51.568;6.998;2023-06-10T11:10:38;54.28;41.91;71.49;;
38366;Laerm;943;51.568;6.998;2023-06-10T11:13:14;54.50;42.25;75.59;;
38366;Laerm;943;51.568;6.998;2023-06-10T11:15:51;48.16;41.16;69.29;;
38366;Laerm;943;51.568;6.998;2023-06-10T11:18:29;46.71;40.51;62.42;;
38366;Laerm;943;51.568;6.998;2023-06-10T11:21:02;48.05;40.44;66.29;;
38366;Laerm;943;51.568;6.998;2023-06-10T11:23:35;47.85;40.51;67.61;;
38366;Laerm;943;51.568;6.998;2023-06-10T11:31:40;48.11;40.76;67.09;;
38366;Laerm;943;51.568;6.998;2023-06-10T11:34:09;47.64;41.57;64.78;;
38366;Laerm;943;51.568;6.998;2023-06-10T11:36:42;50.38;40.90;64.00;;
38366;Laerm;943;51.568;6.998;2023-06-10T11:39:13;48.19;38.71;63.84;;
38366;Laerm;943;51.568;6.998;2023-06-10T11:41:41;48.67;40.72;67.79;;
38366;Laerm;943;51.568;6.998;2023-06-10T11:44:14;48.99;40.96;63.67;;
38366;Laerm;943;51.568;6.998;2023-06-10T11:46:50;48.71;39.02;71.81;;
38366;Laerm;943;51.568;6.998;2023-06-10T11:49:21;57.22;40.70;79.59;;
38366;Laerm;943;51.568;6.998;2023-06-10T11:51:50;49.66;40.60;73.36;;
38366;Laerm;943;51.568;6.998;2023-06-10T11:54:19;47.22;40.88;70.26;;
38366;Laerm;943;51.568;6.998;2023-06-10T11:56:47;46.47;39.51;70.68;;
38366;Laerm;943;51.568;6.998;2023-06-10T11:59:17;45.23;40.65;50.66;;
38366;Laerm;943;51.568;6.998;2023-06-10T12:01:46;44.37;39.74;62.32;;
38366;Laerm;943;51.568;6.998;2023-06-10T12:04:16;43.69;39.75;55.52;;
38366;Laerm;943;51.568;6.998;2023-06-10T12:06:54;45.15;39.89;56.84;;
38366;Laerm;943;51.568;6.998;2023-06-10T12:09:29;45.53;40.55;55.91;;
38366;Laerm;943;51.568;6.998;2023-06-10T12:12:05;48.52;42.03;65.28;;
38366;Laerm;943;51.568;6.998;2023-06-10T12:14:59;46.11;39.77;68.49;;
38366;Laerm;943;51.568;6.998;2023-06-10T12:20:24;50.27;40.51;77.77;;
38366;Laerm;943;51.568;6.998;2023-06-10T12:22:53;44.45;39.87;58.92;;
38366;Laerm;943;51.568;6.998;2023-06-10T12:25:29;42.09;38.23;50.10;;
38366;Laerm;943;51.568;6.998;2023-06-10T12:27:58;46.68;40.21;66.17;;
38366;Laerm;943;51.568;6.998;2023-06-10T12:30:28;51.52;41.87;71.22;;
38366;Laerm;943;51.568;6.998;2023-06-10T12:32:57;45.84;41.66;68.40;;
38366;Laerm;943;51.568;6.998;2023-06-10T12:35:28;47.42;41.93;61.35;;
38366;Laerm;943;51.568;6.998;2023-06-10T12:38:04;50.42;40.00;67.57;;
38366;Laerm;943;51.568;6.998;2023-06-10T12:40:39;51.33;43.35;75.41;;
38366;Laerm;943;51.568;6.998;2023-06-10T12:43:09;47.11;42.32;56.47;;
38366;Laerm;943;51.568;6.998;2023-06-10T12:45:40;46.47;42.00;60.01;;
38366;Laerm;943;51.568;6.998;2023-06-10T12:48:23;52.53;41.30;81.65;;
38366;Laerm;943;51.568;6.998;2023-06-10T12:50:58;49.18;41.54;66.64;;
38366;Laerm;943;51.568;6.998;2023-06-10T12:53:27;49.40;40.37;69.08;;
38366;Laerm;943;51.568;6.998;2023-06-10T12:55:55;51.81;41.63;66.63;;
38366;Laerm;943;51.568;6.998;2023-06-10T12:58:23;46.41;43.10;57.56;;
38366;Laerm;943;51.568;6.998;2023-06-10T13:00:51;47.21;43.04;63.59;;
38366;Laerm;943;51.568;6.998;2023-06-10T13:03:22;47.71;42.39;67.58;;
38366;Laerm;943;51.568;6.998;2023-06-10T13:05:52;46.33;41.88;63.90;;
38366;Laerm;943;51.568;6.998;2023-06-10T13:08:20;49.70;41.20;71.71;;
38366;Laerm;943;51.568;6.998;2023-06-10T13:10:48;46.10;39.01;64.65;;
38366;Laerm;943;51.568;6.998;2023-06-10T13:13:17;48.37;43.17;64.01;;
38366;Laerm;943;51.568;6.998;2023-06-10T13:15:46;48.68;41.13;69.14;;
38366;Laerm;943;51.568;6.998;2023-06-10T13:18:14;48.07;41.50;66.24;;
38366;Laerm;943;51.568;6.998;2023-06-10T13:20:42;48.15;39.96;63.84;;
38366;Laerm;943;51.568;6.998;2023-06-10T13:23:11;48.96;38.46;62.99;;
38366;Laerm;943;51.568;6.998;2023-06-10T13:25:40;49.88;42.21;73.36;;
38366;Laerm;943;51.568;6.998;2023-06-10T13:28:08;50.05;40.70;71.68;;
38366;Laerm;943;51.568;6.998;2023-06-10T13:30:36;51.56;41.72;73.18;;
38366;Laerm;943;51.568;6.998;2023-06-10T13:33:04;48.18;41.51;71.29;;
38366;Laerm;943;51.568;6.998;2023-06-10T13:35:32;51.16;43.20;69.74;;
38366;Laerm;943;51.568;6.998;2023-06-10T13:38:00;48.22;40.88;68.40;;
38366;Laerm;943;51.568;6.998;2023-06-10T13:40:28;56.76;41.29;79.65;;
38366;Laerm;943;51.568;6.998;2023-06-10T13:42:56;52.04;42.07;81.27;;
38366;Laerm;943;51.568;6.998;2023-06-10T13:45:24;52.15;40.97;76.06;;
38366;Laerm;943;51.568;6.998;2023-06-10T13:47:52;47.03;40.58;64.07;;
38366;Laerm;943;51.568;6.998;2023-06-10T13:50:20;49.23;40.19;70.07;;
38366;Laerm;943;51.568;6.998;2023-06-10T13:52:48;49.19;41.13;66.47;;
38366;Laerm;943;51.568;6.998;2023-06-10T13:55:16;51.68;42.04;78.54;;
38366;Laerm;943;51.568;6.998;2023-06-10T13:57:46;59.05;41.78;90.37;;
38366;Laerm;943;51.568;6.998;2023-06-10T14:00:14;51.61;41.71;67.57;;
38366;Laerm;943;51.568;6.998;2023-06-10T14:02:42;49.75;43.47;68.52;;
38366;Laerm;943;51.568;6.998;2023-06-10T14:05:10;50.92;41.30;67.04;;
38366;Laerm;943;51.568;6.998;2023-06-10T14:07:38;46.33;40.59;65.84;;
38366;Laerm;943;51.568;6.998;2023-06-10T14:10:08;47.83;40.66;67.32;;
38366;Laerm;943;51.568;6.998;2023-06-10T14:12:37;48.91;41.70;73.83;;
38366;Laerm;943;51.568;6.998;2023-06-10T14:15:06;45.82;40.91;61.61;;
38366;Laerm;943;51.568;6.998;2023-06-10T14:17:35;48.81;41.17;73.03;;
38366;Laerm;943;51.568;6.998;2023-06-10T14:20:04;51.06;41.33;71.99;;
38366;Laerm;943;51.568;6.998;2023-06-10T14:22:32;51.33;40.88;68.71;;
38366;Laerm;943;51.568;6.998;2023-06-10T14:24:59;49.71;40.87;68.23;;
38366;Laerm;943;51.568;6.998;2023-06-10T14:27:27;54.19;39.37;78.22;;
38366;Laerm;943;51.568;6.998;2023-06-10T14:29:55;49.85;41.67;72.91;;
38366;Laerm;943;51.568;6.998;2023-06-10T14:32:23;48.27;40.92;69.54;;
38366;Laerm;943;51.568;6.998;2023-06-10T14:34:51;47.43;39.49;65.84;;
38366;Laerm;943;51.568;6.998;2023-06-10T14:37:19;44.87;39.35;61.91;;
38366;Laerm;943;51.568;6.998;2023-06-10T14:39:46;57.17;42.23;81.66;;